createdAt,value
2022-10-13T00:01:06.806Z,90.10
2022-10-13T00:03:53.718Z,90.20
2022-10-13T00:06:43.942Z,90.20
2022-10-13T00:09:29.580Z,90.30
2022-10-13T00:12:20.218Z,90.30
2022-10-13T00:15:07.923Z,90.40
2022-10-13T00:17:53.642Z,90.40
2022-10-13T00:20:44.750Z,90.40
2022-10-13T00:23:29.822Z,90.50
2022-10-13T00:26:16.515Z,90.50
2022-10-13T00:29:04.392Z,90.50
2022-10-13T00:31:53.807Z,90.50
2022-10-13T00:34:39.582Z,90.60
2022-10-13T00:37:25.723Z,90.70
2022-10-13T00:40:11.953Z,91.10
2022-10-13T00:42:57.281Z,90.80
2022-10-13T00:45:42.693Z,90.90
2022-10-13T00:48:31.031Z,90.90
2022-10-13T00:51:19.927Z,90.90
2022-10-13T00:54:09.308Z,91.00
2022-10-13T00:56:59.952Z,91.10
2022-10-13T00:59:45.428Z,91.10
2022-10-13T01:02:34.765Z,91.10
2022-10-13T01:05:21.736Z,91.20
2022-10-13T01:08:10.900Z,91.20
2022-10-13T01:11:28.075Z,91.20
2022-10-13T01:14:33.170Z,91.30
2022-10-13T01:17:41.851Z,91.30
2022-10-13T01:20:50.471Z,91.50
2022-10-13T01:24:03.698Z,91.50
2022-10-13T01:27:15.580Z,91.50
2022-10-13T01:30:22.723Z,91.40
2022-10-13T01:33:07.756Z,91.80
2022-10-13T01:36:08.257Z,91.20
2022-10-13T01:39:07.400Z,91.10
2022-10-13T01:42:00.788Z,91.10
2022-10-13T01:44:54.718Z,91.10
2022-10-13T01:47:42.515Z,91.30
2022-10-13T01:50:28.828Z,91.50
2022-10-13T01:53:18.165Z,91.80
2022-10-13T01:56:05.162Z,91.90
2022-10-13T01:58:53.244Z,92.00
2022-10-13T02:02:08.744Z,92.20
2022-10-13T02:05:11.599Z,92.20
2022-10-13T02:08:15.088Z,92.30
2022-10-13T02:11:22.188Z,92.30
2022-10-13T02:14:18.843Z,92.20
2022-10-13T02:17:05.753Z,92.00
2022-10-13T02:19:54.348Z,91.90
2022-10-13T02:22:47.275Z,92.10
2022-10-13T02:25:34.605Z,92.30
2022-10-13T02:28:20.585Z,92.40
2022-10-13T02:31:07.794Z,92.60
2022-10-13T02:33:53.728Z,92.90
2022-10-13T02:36:39.629Z,93.00
2022-10-13T02:39:24.884Z,93.10
2022-10-13T02:42:10.455Z,93.20
2022-10-13T02:44:56.199Z,93.20
2022-10-13T02:47:41.420Z,93.40
2022-10-13T02:50:26.911Z,93.60
2022-10-13T02:53:15.938Z,93.60
2022-10-13T02:56:01.902Z,93.70
2022-10-13T02:58:49.503Z,93.70
2022-10-13T03:01:35.821Z,93.60
2022-10-13T03:04:21.299Z,93.70
2022-10-13T03:07:09.927Z,93.70
2022-10-13T03:09:55.491Z,93.60
2022-10-13T03:12:41.592Z,93.60
2022-10-13T03:15:27.266Z,93.60
2022-10-13T03:18:14.515Z,93.50
2022-10-13T03:21:02.371Z,93.50
2022-10-13T03:23:47.964Z,93.60
2022-10-13T03:26:33.741Z,93.70
2022-10-13T03:29:22.595Z,93.70
2022-10-13T03:32:08.186Z,93.90
2022-10-13T03:34:54.027Z,94.00
2022-10-13T03:37:39.250Z,94.20
2022-10-13T03:40:24.981Z,94.30
2022-10-13T03:43:11.670Z,94.50
2022-10-13T03:46:02.251Z,94.50
2022-10-13T03:48:48.171Z,94.60
2022-10-13T03:51:34.145Z,94.50
2022-10-13T03:54:19.754Z,94.50
2022-10-13T03:57:06.688Z,94.50
2022-10-13T03:59:52.295Z,94.60
2022-10-13T04:02:37.749Z,94.90
2022-10-13T04:05:23.364Z,95.10
2022-10-13T04:08:09.362Z,95.10
2022-10-13T04:11:09.213Z,95.10
2022-10-13T04:13:58.124Z,95.50
2022-10-13T04:16:47.155Z,95.50
2022-10-13T04:19:36.385Z,95.50
2022-10-13T04:22:23.726Z,95.50
2022-10-13T04:25:19.598Z,95.60
2022-10-13T04:28:06.554Z,95.70
2022-10-13T04:30:54.936Z,95.60
2022-10-13T04:33:40.187Z,95.70
2022-10-13T04:36:26.477Z,95.70
2022-10-13T04:39:12.103Z,95.70
2022-10-13T04:41:57.859Z,95.70
2022-10-13T04:44:43.418Z,95.90
2022-10-13T04:47:34.718Z,96.00
2022-10-13T04:50:26.922Z,96.00
2022-10-13T04:53:19.271Z,96.20
2022-10-13T04:56:08.437Z,96.30
2022-10-13T04:58:54.268Z,96.40
2022-10-13T05:01:39.793Z,96.40
2022-10-13T05:04:26.917Z,96.40
2022-10-13T05:07:18.115Z,96.40
2022-10-13T05:10:04.523Z,96.40
2022-10-13T05:12:53.318Z,96.70
2022-10-13T05:15:39.366Z,96.50
2022-10-13T05:18:24.698Z,96.40
2022-10-13T05:21:22.543Z,96.40
2022-10-13T05:24:13.258Z,96.50
2022-10-13T05:26:59.620Z,96.50
2022-10-13T05:29:44.860Z,96.50
2022-10-13T05:32:30.423Z,96.60
2022-10-13T05:35:15.936Z,96.70
2022-10-13T05:38:01.192Z,96.80
2022-10-13T05:40:46.998Z,96.90
2022-10-13T05:43:33.546Z,97.10
2022-10-13T05:46:19.350Z,97.30
2022-10-13T05:49:04.968Z,97.40
2022-10-13T05:51:57.166Z,97.50
2022-10-13T05:54:47.513Z,97.70
2022-10-13T05:57:37.261Z,97.80
2022-10-13T06:00:23.682Z,97.80
2022-10-13T06:03:19.623Z,97.80
2022-10-13T06:06:05.321Z,97.80
2022-10-13T06:08:51.723Z,97.70
2022-10-13T06:11:37.499Z,97.70
2022-10-13T06:14:25.536Z,97.60
2022-10-13T06:17:10.635Z,98.20
2022-10-13T06:19:56.046Z,98.00
2022-10-13T06:22:41.408Z,98.00
2022-10-13T06:25:27.016Z,98.10
2022-10-13T06:28:13.120Z,98.20
2022-10-13T06:30:58.409Z,98.30
2022-10-13T06:33:44.134Z,98.40
2022-10-13T06:36:29.589Z,98.40
2022-10-13T06:39:15.012Z,98.50
2022-10-13T06:42:00.532Z,98.50
2022-10-13T06:44:47.961Z,98.50
2022-10-13T06:47:33.463Z,98.60
2022-10-13T06:50:18.999Z,98.80
2022-10-13T06:53:04.167Z,98.90
2022-10-13T06:55:52.717Z,99.00
2022-10-13T06:58:44.657Z,99.20
2022-10-13T07:01:30.147Z,99.20
2022-10-13T07:04:16.487Z,99.40
2022-10-13T07:07:01.950Z,99.50
2022-10-13T07:09:47.371Z,99.50
2022-10-13T07:12:33.154Z,99.40
2022-10-13T07:15:18.476Z,99.40
2022-10-13T07:18:03.784Z,99.30
2022-10-13T07:20:50.449Z,99.30
2022-10-13T07:23:35.796Z,99.20
2022-10-13T07:26:21.362Z,99.20
2022-10-13T07:29:06.812Z,99.10
2022-10-13T07:31:52.384Z,99.20
2022-10-13T07:34:40.179Z,99.00
2022-10-13T07:37:26.280Z,99.00
2022-10-13T07:40:11.915Z,99.00
2022-10-13T07:42:57.836Z,98.90
2022-10-13T07:45:43.337Z,99.00
2022-10-13T07:48:29.008Z,99.00
2022-10-13T07:51:17.801Z,98.90
2022-10-13T07:54:03.374Z,98.80
2022-10-13T07:56:52.615Z,99.00
2022-10-13T07:59:38.318Z,98.90
2022-10-13T08:02:23.790Z,98.90
2022-10-13T08:05:09.454Z,98.90
2022-10-13T08:07:57.519Z,98.70
2022-10-13T08:10:43.852Z,98.50
2022-10-13T08:13:29.208Z,98.20
2022-10-13T08:16:24.631Z,98.20
2022-10-13T08:19:18.407Z,98.20
2022-10-13T08:22:06.605Z,98.30
2022-10-13T08:24:57.923Z,98.10
2022-10-13T08:27:50.962Z,97.80
2022-10-13T08:30:37.632Z,97.80
2022-10-13T08:33:30.470Z,97.70
2022-10-13T08:36:17.700Z,97.50
2022-10-13T08:39:03.628Z,97.60
2022-10-13T08:41:50.209Z,97.30
2022-10-13T08:45:15.729Z,97.30
2022-10-13T08:47:54.531Z,97.40
2022-10-13T08:50:46.694Z,97.50
2022-10-13T08:53:40.128Z,97.80
2022-10-13T08:56:36.511Z,97.80
2022-10-13T08:59:22.024Z,97.60
2022-10-13T09:02:16.578Z,97.40
2022-10-13T09:05:05.362Z,97.40
2022-10-13T09:10:55.559Z,97.40
2022-10-13T09:13:41.045Z,97.20
2022-10-13T09:16:33.960Z,97.40
2022-10-13T09:19:25.869Z,97.50
2022-10-13T09:22:23.366Z,97.00
2022-10-13T09:25:11.378Z,96.90
2022-10-13T09:28:08.720Z,96.10
2022-10-13T09:31:13.908Z,96.30
2022-10-13T09:34:13.447Z,95.90
2022-10-13T09:37:05.551Z,95.70
2022-10-13T09:40:32.480Z,95.40
2022-10-13T09:43:33.274Z,95.30
2022-10-13T09:46:25.508Z,94.60
2022-10-13T09:49:40.564Z,94.40
2022-10-13T09:52:26.275Z,94.80
2022-10-13T09:55:35.080Z,94.60
2022-10-13T09:58:30.100Z,94.20
2022-10-13T10:01:21.826Z,94.10
2022-10-13T10:04:13.513Z,94.80
2022-10-13T10:07:02.136Z,94.00
2022-10-13T10:09:58.417Z,94.00
2022-10-13T10:12:44.445Z,94.20
2022-10-13T10:16:02.680Z,93.60
2022-10-13T10:18:50.459Z,93.40
2022-10-13T10:21:47.897Z,93.20
2022-10-13T10:24:55.862Z,92.40
2022-10-13T10:28:02.260Z,92.40
2022-10-13T10:30:54.658Z,92.40
2022-10-13T10:34:17.056Z,91.90
2022-10-13T10:37:09.879Z,91.70
2022-10-13T10:40:16.722Z,91.30
2022-10-13T10:43:32.746Z,91.20
2022-10-13T10:46:27.934Z,90.70
2022-10-13T10:49:22.211Z,90.30
2022-10-13T10:52:10.955Z,90.60
2022-10-13T10:55:34.103Z,88.30
2022-10-13T10:58:35.079Z,88.30
2022-10-13T11:01:27.980Z,88.20
2022-10-13T11:04:40.575Z,87.60
2022-10-13T11:07:30.128Z,87.90
2022-10-13T11:10:17.493Z,86.90
2022-10-13T11:13:16.572Z,87.00
2022-10-13T11:16:40.925Z,87.80
2022-10-13T11:19:39.674Z,88.50
2022-10-13T11:22:26.118Z,87.70
2022-10-13T11:25:41.131Z,86.80
2022-10-13T11:28:41.698Z,86.40
2022-10-13T11:31:55.603Z,85.50
2022-10-13T11:35:06.551Z,84.70
2022-10-13T11:38:06.826Z,84.20
2022-10-13T11:41:08.733Z,84.50
2022-10-13T11:44:09.037Z,85.00
2022-10-13T11:47:25.065Z,85.00
2022-10-13T11:50:19.302Z,85.90
2022-10-13T11:53:19.963Z,86.50
2022-10-13T11:56:57.229Z,85.50
2022-10-13T11:59:47.005Z,86.20
2022-10-13T12:02:32.466Z,84.40
2022-10-13T12:05:29.163Z,84.40
2022-10-13T12:08:15.477Z,84.00
2022-10-13T12:11:04.788Z,84.10
2022-10-13T12:13:51.024Z,83.40
2022-10-13T12:16:36.312Z,83.80
2022-10-13T12:19:25.276Z,83.00
2022-10-13T12:22:14.782Z,83.60
2022-10-13T12:25:06.379Z,83.70
2022-10-13T12:27:54.295Z,84.00
2022-10-13T12:30:42.800Z,84.10
2022-10-13T12:33:35.352Z,84.90
2022-10-13T12:36:25.141Z,84.70
2022-10-13T12:39:14.162Z,84.80
2022-10-13T12:42:06.373Z,84.60
2022-10-13T12:44:55.455Z,84.60
2022-10-13T12:47:49.557Z,85.80
2022-10-13T12:50:36.738Z,85.50
2022-10-13T12:53:28.871Z,85.70
2022-10-13T12:56:42.627Z,86.40
2022-10-13T12:59:30.173Z,87.10
2022-10-13T13:02:25.975Z,87.90
2022-10-13T13:05:35.544Z,87.90
2022-10-13T13:08:37.191Z,88.20
2022-10-13T13:11:33.404Z,88.30
2022-10-13T13:14:38.591Z,88.80
2022-10-13T13:17:53.367Z,88.30
2022-10-13T13:20:37.694Z,88.10
2022-10-13T13:23:23.714Z,88.10
2022-10-13T13:26:23.162Z,88.40
2022-10-13T13:29:10.648Z,88.40
2022-10-13T13:31:56.092Z,89.00
2022-10-13T13:34:44.309Z,88.40
2022-10-13T13:37:48.865Z,88.60
2022-10-13T13:40:34.169Z,89.00
2022-10-13T13:43:20.199Z,89.00
2022-10-13T13:46:07.288Z,89.60
2022-10-13T13:48:52.600Z,89.70
2022-10-13T13:51:38.151Z,90.00
2022-10-13T13:54:24.116Z,90.10
2022-10-13T13:57:11.091Z,90.10
2022-10-13T13:59:56.638Z,90.00
2022-10-13T14:02:43.737Z,90.20
2022-10-13T14:05:29.102Z,90.10
2022-10-13T14:08:14.236Z,89.90
2022-10-13T14:10:59.963Z,90.10
2022-10-13T14:13:47.948Z,90.00
2022-10-13T14:16:45.650Z,90.10
2022-10-13T14:19:32.274Z,90.20
2022-10-13T14:22:17.881Z,90.20
2022-10-13T14:25:03.505Z,90.10
2022-10-13T14:27:55.358Z,90.10
2022-10-13T14:30:41.408Z,90.10
2022-10-13T14:33:26.756Z,90.30
2022-10-13T14:36:12.508Z,90.40
2022-10-13T14:38:58.208Z,90.60
2022-10-13T14:41:43.912Z,90.70
2022-10-13T14:44:29.295Z,90.50
2022-10-13T14:47:15.053Z,90.10
2022-10-13T14:50:01.934Z,89.60
2022-10-13T14:52:47.760Z,89.50
2022-10-13T14:55:33.312Z,89.20
2022-10-13T14:58:18.803Z,90.00
2022-10-13T15:01:04.205Z,89.30
2022-10-13T15:03:50.132Z,89.30
2022-10-13T15:06:35.854Z,89.30
2022-10-13T15:09:25.642Z,90.00
2022-10-13T15:12:19.465Z,89.40
2022-10-13T15:15:06.035Z,89.90
2022-10-13T15:17:51.223Z,90.30
2022-10-13T15:20:36.657Z,90.30
2022-10-13T15:23:22.795Z,90.50
2022-10-13T15:26:08.581Z,87.80
2022-10-13T15:28:54.496Z,85.30
2022-10-13T15:31:42.638Z,84.00
2022-10-13T15:34:30.073Z,84.30
2022-10-13T15:37:20.751Z,86.00
2022-10-13T15:40:06.742Z,83.20
2022-10-13T15:42:53.032Z,77.60
2022-10-13T15:45:38.695Z,74.90
2022-10-13T15:48:28.576Z,69.00
2022-10-13T15:51:16.464Z,66.90
2022-10-13T15:54:01.993Z,66.60
2022-10-13T15:56:47.264Z,69.30
2022-10-13T15:59:36.037Z,68.60
2022-10-13T16:02:23.466Z,69.40
2022-10-13T16:05:12.624Z,70.60
2022-10-13T16:07:58.014Z,72.30
2022-10-13T16:10:43.941Z,73.70
2022-10-13T16:13:29.412Z,75.50
2022-10-13T16:16:18.079Z,76.30
2022-10-13T16:19:06.786Z,76.80
2022-10-13T16:21:52.466Z,77.00
2022-10-13T16:24:38.435Z,77.50
2022-10-13T16:27:24.770Z,78.40
2022-10-13T16:30:11.829Z,79.30
2022-10-13T16:32:58.027Z,79.30
2022-10-13T16:35:44.716Z,79.80
2022-10-13T16:38:35.311Z,80.70
2022-10-13T16:41:21.068Z,81.70
2022-10-13T16:44:09.597Z,82.40
2022-10-13T16:46:57.025Z,83.00
2022-10-13T16:49:42.425Z,83.40
2022-10-13T16:52:29.791Z,84.00
2022-10-13T16:55:18.067Z,84.20
2022-10-13T16:58:05.798Z,84.80
2022-10-13T17:00:51.424Z,85.20
2022-10-13T17:03:38.363Z,85.50
2022-10-13T17:06:26.756Z,86.10
2022-10-13T17:09:14.974Z,86.50
2022-10-13T17:12:00.740Z,86.20
2022-10-13T17:14:48.054Z,86.60
2022-10-13T17:17:36.396Z,86.90
2022-10-13T17:20:21.839Z,87.10
2022-10-13T17:23:09.523Z,87.40
2022-10-13T17:25:56.120Z,87.50
2022-10-13T17:28:42.189Z,87.60
2022-10-13T17:31:27.966Z,87.70
2022-10-13T17:34:13.542Z,87.90
2022-10-13T17:36:59.399Z,88.00
2022-10-13T17:39:47.950Z,88.00
2022-10-13T17:42:34.213Z,88.10
2022-10-13T17:45:19.725Z,87.80
2022-10-13T17:48:05.208Z,87.00
2022-10-13T17:50:52.460Z,86.80
2022-10-13T17:53:45.768Z,86.80
2022-10-13T17:56:31.783Z,87.30
2022-10-13T17:59:20.483Z,87.50
2022-10-13T18:02:05.943Z,88.00
2022-10-13T18:04:51.350Z,88.20
2022-10-13T18:07:36.855Z,88.40
2022-10-13T18:10:22.478Z,88.80
2022-10-13T18:13:12.407Z,89.30
2022-10-13T18:16:31.944Z,89.90
2022-10-13T18:19:21.825Z,90.10
2022-10-13T18:22:08.663Z,90.10
2022-10-13T18:24:57.066Z,90.20
2022-10-13T18:27:43.230Z,90.40
2022-10-13T18:30:28.902Z,90.50
2022-10-13T18:33:14.648Z,90.50
2022-10-13T18:36:00.351Z,90.70
2022-10-13T18:38:51.910Z,90.80
2022-10-13T18:41:38.232Z,91.00
2022-10-13T18:44:25.020Z,91.20
2022-10-13T18:47:10.544Z,91.50
2022-10-13T18:49:58.032Z,91.70
2022-10-13T18:52:43.440Z,92.00
2022-10-13T18:55:28.998Z,92.20
2022-10-13T18:58:14.501Z,92.30
2022-10-13T19:01:08.274Z,92.30
2022-10-13T19:03:54.374Z,92.30
2022-10-13T19:06:40.263Z,92.40
2022-10-13T19:09:26.489Z,92.60
2022-10-13T19:12:12.061Z,92.80
2022-10-13T19:15:00.406Z,92.90
2022-10-13T19:17:49.171Z,93.00
2022-10-13T19:20:34.847Z,93.20
2022-10-13T19:23:22.890Z,93.30
2022-10-13T19:26:15.311Z,93.30
2022-10-13T19:29:08.080Z,93.30
2022-10-13T19:31:53.277Z,93.70
2022-10-13T19:34:38.674Z,93.30
2022-10-13T19:37:24.990Z,93.30
2022-10-13T19:40:10.281Z,93.40
2022-10-13T19:42:56.015Z,93.50
2022-10-13T19:45:46.870Z,93.70
2022-10-13T19:48:37.314Z,93.80
2022-10-13T19:51:22.622Z,93.80
2022-10-13T19:54:13.994Z,93.90
2022-10-13T19:57:03.043Z,94.20
2022-10-13T19:59:48.601Z,94.40
2022-10-13T20:02:34.076Z,94.60
2022-10-13T20:05:24.646Z,94.80
2022-10-13T20:08:12.198Z,95.00
2022-10-13T20:11:00.911Z,95.00
2022-10-13T20:13:47.497Z,95.00
2022-10-13T20:16:33.332Z,95.00
2022-10-13T20:19:19.727Z,95.10
2022-10-13T20:22:06.392Z,95.00
2022-10-13T20:24:57.646Z,95.00
2022-10-13T20:27:43.173Z,95.00
2022-10-13T20:30:32.540Z,95.00
2022-10-13T20:33:18.050Z,95.00
2022-10-13T20:36:06.196Z,95.00
2022-10-13T20:38:51.581Z,95.10
2022-10-13T20:41:38.622Z,95.20
2022-10-13T20:44:24.128Z,95.50
2022-10-13T20:47:09.491Z,95.60
2022-10-13T20:49:57.431Z,95.70
2022-10-13T20:52:42.952Z,96.00
2022-10-13T20:55:38.152Z,96.20
2022-10-13T20:58:31.901Z,96.30
2022-10-13T21:01:22.236Z,96.40
2022-10-13T21:04:07.501Z,96.50
2022-10-13T21:06:53.109Z,96.50
2022-10-13T21:09:38.524Z,96.70
2022-10-13T21:12:23.747Z,97.10
2022-10-13T21:15:09.524Z,97.50
2022-10-13T21:17:55.082Z,97.70
2022-10-13T21:20:43.495Z,97.40
2022-10-13T21:23:28.783Z,97.50
2022-10-13T21:26:21.373Z,97.40
2022-10-13T21:29:07.123Z,97.10
2022-10-13T21:31:52.692Z,96.90
2022-10-13T21:34:41.329Z,97.10
2022-10-13T21:37:26.504Z,97.00
2022-10-13T21:40:12.195Z,96.90
2022-10-13T21:42:57.629Z,96.80
2022-10-13T21:45:43.264Z,96.90
2022-10-13T21:48:28.515Z,97.00
2022-10-13T21:51:20.110Z,97.20
2022-10-13T21:54:11.162Z,97.30
2022-10-13T21:56:56.167Z,97.30
2022-10-13T21:59:41.742Z,97.30
2022-10-13T22:02:27.046Z,97.30
2022-10-13T22:05:13.107Z,97.60
2022-10-13T22:07:58.742Z,97.90
2022-10-13T22:10:44.287Z,98.00
2022-10-13T22:13:29.776Z,98.00
2022-10-13T22:16:21.179Z,98.00
2022-10-13T22:19:06.809Z,97.90
2022-10-13T22:21:53.900Z,98.00
2022-10-13T22:24:39.319Z,98.00
2022-10-13T22:27:24.728Z,97.60
2022-10-13T22:30:13.448Z,97.60
2022-10-13T22:32:58.827Z,97.50
2022-10-13T22:35:46.527Z,97.10
2022-10-13T22:38:32.752Z,96.90
2022-10-13T22:41:21.119Z,96.80
2022-10-13T22:44:08.515Z,96.90
2022-10-13T22:46:53.859Z,97.20
2022-10-13T22:49:39.164Z,97.40
2022-10-13T22:52:24.487Z,97.60
2022-10-13T22:55:11.867Z,97.60
2022-10-13T22:57:57.921Z,97.30
2022-10-13T23:00:46.024Z,97.50
2022-10-13T23:03:31.404Z,97.60
2022-10-13T23:06:18.990Z,97.60
2022-10-13T23:09:05.995Z,97.40
2022-10-13T23:11:51.135Z,97.30
2022-10-13T23:14:39.964Z,97.30
2022-10-13T23:17:28.247Z,97.20
2022-10-13T23:20:13.396Z,97.20
2022-10-13T23:22:58.671Z,97.10
2022-10-13T23:25:43.988Z,97.20
2022-10-13T23:28:31.061Z,97.20
2022-10-13T23:31:17.333Z,97.30
2022-10-13T23:34:02.639Z,97.30
2022-10-13T23:36:48.115Z,97.20
2022-10-13T23:39:33.465Z,97.30
2022-10-13T23:42:21.923Z,97.50
2022-10-13T23:45:07.877Z,97.60
2022-10-13T23:47:53.338Z,97.80
2022-10-13T23:50:38.699Z,98.00
2022-10-13T23:53:24.679Z,98.30
2022-10-13T23:56:11.765Z,98.60
2022-10-13T23:58:57.124Z,98.80
